sensor_id;sensor_type;location;lat;lon;timestamp;pressure;altitude;pressure_sealevel;temperature;humidity
55010;BME280;40903;51.638;7.528;2023-04-29T00:00:45;100647.16;;;12.06;100.00
55010;BME280;40903;51.638;7.528;2023-04-29T00:03:10;100641.81;;;12.01;100.00
55010;BME280;40903;51.638;7.528;2023-04-29T00:05:35;100642.91;;;12.00;100.00
55010;BME280;40903;51.638;7.528;2023-04-29T00:08:00;100640.47;;;11.99;100.00
55010;BME280;40903;51.638;7.528;2023-04-29T00:10:26;100643.81;;;11.96;100.00
55010;BME280;40903;51.638;7.528;2023-04-29T00:12:51;100647.66;;;11.95;100.00
55010;BME280;40903;51.638;7.528;2023-04-29T00:15:16;100653.41;;;11.93;100.00
55010;BME280;40903;51.638;7.528;2023-04-29T00:17:42;100650.19;;;11.91;100.00
55010;BME280;40903;51.638;7.528;2023-04-29T00:20:07;100660.09;;;11.87;100.00
55010;BME280;40903;51.638;7.528;2023-04-29T00:22:32;100656.25;;;11.88;100.00
55010;BME280;40903;51.638;7.528;2023-04-29T00:24:58;100656.34;;;11.83;100.00
55010;BME280;40903;51.638;7.528;2023-04-29T00:27:23;100660.19;;;11.82;100.00
55010;BME280;40903;51.638;7.528;2023-04-29T00:29:48;100666.78;;;11.81;100.00
55010;BME280;40903;51.638;7.528;2023-04-29T00:32:14;100663.72;;;11.83;100.00
55010;BME280;40903;51.638;7.528;2023-04-29T00:34:39;100673.41;;;11.75;100.00
55010;BME280;40903;51.638;7.528;2023-04-29T00:37:04;100678.38;;;11.73;100.00
55010;BME280;40903;51.638;7.528;2023-04-29T00:39:29;100680.31;;;11.73;100.00
55010;BME280;40903;51.638;7.528;2023-04-29T00:41:54;100681.91;;;11.74;100.00
55010;BME280;40903;51.638;7.528;2023-04-29T00:44:20;100679.47;;;11.73;100.00
55010;BME280;40903;51.638;7.528;2023-04-29T00:46:45;100687.16;;;11.71;100.00
55010;BME280;40903;51.638;7.528;2023-04-29T00:49:10;100690.50;;;11.68;100.00
55010;BME280;40903;51.638;7.528;2023-04-29T00:51:37;100688.88;;;11.67;100.00
55010;BME280;40903;51.638;7.528;2023-04-29T00:54:04;100689.75;;;11.62;100.00
55010;BME280;40903;51.638;7.528;2023-04-29T00:56:30;100690.88;;;11.61;100.00
55010;BME280;40903;51.638;7.528;2023-04-29T00:58:56;100694.22;;;11.58;100.00
55010;BME280;40903;51.638;7.528;2023-04-29T01:01:22;100698.38;;;11.51;100.00
55010;BME280;40903;51.638;7.528;2023-04-29T01:03:48;100707.38;;;11.51;100.00
55010;BME280;40903;51.638;7.528;2023-04-29T01:06:19;100700.53;;;11.54;100.00
55010;BME280;40903;51.638;7.528;2023-04-29T01:11:22;100706.88;;;11.49;100.00
55010;BME280;40903;51.638;7.528;2023-04-29T01:13:58;100717.28;;;11.47;100.00
55010;BME280;40903;51.638;7.528;2023-04-29T01:17:10;100714.78;;;11.51;100.00
55010;BME280;40903;51.638;7.528;2023-04-29T01:19:14;100721.03;;;11.51;100.00
55010;BME280;40903;51.638;7.528;2023-04-29T01:21:47;100716.38;;;11.52;100.00
55010;BME280;40903;51.638;7.528;2023-04-29T01:24:13;100722.97;;;11.51;100.00
55010;BME280;40903;51.638;7.528;2023-04-29T01:26:38;100722.41;;;11.49;100.00
55010;BME280;40903;51.638;7.528;2023-04-29T01:29:21;100726.81;;;11.50;100.00
55010;BME280;40903;51.638;7.528;2023-04-29T01:34:43;100727.88;;;11.49;100.00
55010;BME280;40903;51.638;7.528;2023-04-29T01:37:18;100727.09;;;11.48;100.00
55010;BME280;40903;51.638;7.528;2023-04-29T01:39:57;100736.63;;;11.51;100.00
55010;BME280;40903;51.638;7.528;2023-04-29T01:42:28;100742.09;;;11.51;100.00
55010;BME280;40903;51.638;7.528;2023-04-29T01:44:57;100732.56;;;11.48;100.00
55010;BME280;40903;51.638;7.528;2023-04-29T01:47:24;100736.38;;;11.47;100.00
55010;BME280;40903;51.638;7.528;2023-04-29T01:49:51;100744.34;;;11.44;100.00
55010;BME280;40903;51.638;7.528;2023-04-29T01:52:16;100748.19;;;11.43;100.00
55010;BME280;40903;51.638;7.528;2023-04-29T01:54:41;100746.66;;;11.37;100.00
55010;BME280;40903;51.638;7.528;2023-04-29T01:57:07;100754.09;;;11.31;100.00
55010;BME280;40903;51.638;7.528;2023-04-29T01:59:32;100759.91;;;11.25;100.00
55010;BME280;40903;51.638;7.528;2023-04-29T02:01:57;100752.00;;;11.23;100.00
55010;BME280;40903;51.638;7.528;2023-04-29T02:04:23;100756.19;;;11.16;100.00
55010;BME280;40903;51.638;7.528;2023-04-29T02:06:49;100754.31;;;11.16;100.00
55010;BME280;40903;51.638;7.528;2023-04-29T02:09:14;100761.47;;;11.12;100.00
55010;BME280;40903;51.638;7.528;2023-04-29T02:11:39;100764.38;;;11.16;100.00
55010;BME280;40903;51.638;7.528;2023-04-29T02:14:05;100764.22;;;11.07;100.00
55010;BME280;40903;51.638;7.528;2023-04-29T02:16:30;100770.00;;;11.06;100.00
55010;BME280;40903;51.638;7.528;2023-04-29T02:18:55;100779.56;;;11.03;100.00
55010;BME280;40903;51.638;7.528;2023-04-29T02:21:21;100774.38;;;11.02;100.00
55010;BME280;40903;51.638;7.528;2023-04-29T02:23:46;100783.69;;;11.01;100.00
55010;BME280;40903;51.638;7.528;2023-04-29T02:26:11;100786.41;;;11.01;100.00
55010;BME280;40903;51.638;7.528;2023-04-29T02:28:37;100788.34;;;11.00;100.00
55010;BME280;40903;51.638;7.528;2023-04-29T02:31:03;100789.72;;;10.98;100.00
55010;BME280;40903;51.638;7.528;2023-04-29T02:33:28;100792.69;;;11.01;100.00
55010;BME280;40903;51.638;7.528;2023-04-29T02:35:53;100800.13;;;10.96;100.00
55010;BME280;40903;51.638;7.528;2023-04-29T02:38:18;100796.56;;;10.95;100.00
55010;BME280;40903;51.638;7.528;2023-04-29T02:40:44;100805.00;;;10.99;100.00
55010;BME280;40903;51.638;7.528;2023-04-29T02:43:10;100806.94;;;10.98;100.00
55010;BME280;40903;51.638;7.528;2023-04-29T02:45:36;100808.31;;;10.96;100.00
55010;BME280;40903;51.638;7.528;2023-04-29T02:48:01;100814.03;;;10.94;100.00
55010;BME280;40903;51.638;7.528;2023-04-29T02:50:27;100814.88;;;10.95;100.00
55010;BME280;40903;51.638;7.528;2023-04-29T02:52:52;100810.53;;;10.94;100.00
55010;BME280;40903;51.638;7.528;2023-04-29T02:55:17;100815.97;;;10.94;100.00
55010;BME280;40903;51.638;7.528;2023-04-29T02:57:43;100816.22;;;10.97;100.00
55010;BME280;40903;51.638;7.528;2023-04-29T03:00:08;100817.59;;;10.95;100.00
55010;BME280;40903;51.638;7.528;2023-04-29T03:02:34;100823.84;;;10.95;100.00
55010;BME280;40903;51.638;7.528;2023-04-29T03:05:00;100818.72;;;10.94;100.00
55010;BME280;40903;51.638;7.528;2023-04-29T03:07:25;100826.81;;;10.99;100.00
55010;BME280;40903;51.638;7.528;2023-04-29T03:09:50;100827.41;;;10.96;100.00
55010;BME280;40903;51.638;7.528;2023-04-29T03:12:16;100824.97;;;10.94;100.00
55010;BME280;40903;51.638;7.528;2023-04-29T03:14:41;100826.38;;;10.92;100.00
55010;BME280;40903;51.638;7.528;2023-04-29T03:17:06;100826.13;;;10.88;100.00
55010;BME280;40903;51.638;7.528;2023-04-29T03:19:32;100826.41;;;10.87;100.00
55010;BME280;40903;51.638;7.528;2023-04-29T03:21:57;100839.25;;;10.86;100.00
55010;BME280;40903;51.638;7.528;2023-04-29T03:24:22;100835.75;;;10.81;100.00
55010;BME280;40903;51.638;7.528;2023-04-29T03:26:47;100842.31;;;10.80;100.00
55010;BME280;40903;51.638;7.528;2023-04-29T03:29:13;100840.69;;;10.79;100.00
55010;BME280;40903;51.638;7.528;2023-04-29T03:31:38;100834.41;;;10.78;100.00
55010;BME280;40903;51.638;7.528;2023-04-29T03:34:03;100832.78;;;10.77;100.00
55010;BME280;40903;51.638;7.528;2023-04-29T03:36:28;100833.88;;;10.76;100.00
55010;BME280;40903;51.638;7.528;2023-04-29T03:38:54;100841.53;;;10.74;100.00
55010;BME280;40903;51.638;7.528;2023-04-29T03:41:19;100839.34;;;10.76;100.00
55010;BME280;40903;51.638;7.528;2023-04-29T03:43:44;100845.91;;;10.75;100.00
55010;BME280;40903;51.638;7.528;2023-04-29T03:46:10;100844.78;;;10.76;100.00
55010;BME280;40903;51.638;7.528;2023-04-29T03:48:35;100846.72;;;10.76;100.00
55010;BME280;40903;51.638;7.528;2023-04-29T03:51:01;100849.16;;;10.77;100.00
55010;BME280;40903;51.638;7.528;2023-04-29T03:53:26;100844.78;;;10.76;100.00
55010;BME280;40903;51.638;7.528;2023-04-29T03:55:52;100854.91;;;10.76;100.00
55010;BME280;40903;51.638;7.528;2023-04-29T03:58:17;100855.72;;;10.76;100.00
55010;BME280;40903;51.638;7.528;2023-04-29T04:00:42;100856.28;;;10.73;100.00
55010;BME280;40903;51.638;7.528;2023-04-29T04:03:07;100859.59;;;10.70;100.00
55010;BME280;40903;51.638;7.528;2023-04-29T04:05:33;100863.69;;;10.68;100.00
55010;BME280;40903;51.638;7.528;2023-04-29T04:07:58;100858.25;;;10.68;100.00
55010;BME280;40903;51.638;7.528;2023-04-29T04:10:24;100866.69;;;10.66;100.00
55010;BME280;40903;51.638;7.528;2023-04-29T04:12:50;100860.47;;;10.66;100.00
55010;BME280;40903;51.638;7.528;2023-04-29T04:15:15;100871.34;;;10.66;100.00
55010;BME280;40903;51.638;7.528;2023-04-29T04:17:41;100879.81;;;10.64;100.00
55010;BME280;40903;51.638;7.528;2023-04-29T04:20:06;100873.25;;;10.65;100.00
55010;BME280;40903;51.638;7.528;2023-04-29T04:22:32;100880.13;;;10.63;100.00
55010;BME280;40903;51.638;7.528;2023-04-29T04:24:57;100885.06;;;10.61;100.00
55010;BME280;40903;51.638;7.528;2023-04-29T04:27:22;100888.81;;;10.65;100.00
55010;BME280;40903;51.638;7.528;2023-04-29T04:29:51;100892.13;;;10.62;100.00
55010;BME280;40903;51.638;7.528;2023-04-29T04:32:17;100890.50;;;10.61;100.00
55010;BME280;40903;51.638;7.528;2023-04-29T04:34:42;100894.03;;;10.61;100.00
55010;BME280;40903;51.638;7.528;2023-04-29T04:37:07;100896.75;;;10.61;100.00
55010;BME280;40903;51.638;7.528;2023-04-29T04:39:32;100896.75;;;10.61;100.00
55010;BME280;40903;51.638;7.528;2023-04-29T04:41:58;100896.75;;;10.61;100.00
55010;BME280;40903;51.638;7.528;2023-04-29T04:44:23;100894.56;;;10.63;100.00
55010;BME280;40903;51.638;7.528;2023-04-29T04:46:51;100898.63;;;10.66;100.00
55010;BME280;40903;51.638;7.528;2023-04-29T04:49:16;100898.06;;;10.69;100.00
55010;BME280;40903;51.638;7.528;2023-04-29T04:51:44;100907.34;;;10.68;100.00
55010;BME280;40903;51.638;7.528;2023-04-29T04:54:10;100910.88;;;10.68;100.00
55010;BME280;40903;51.638;7.528;2023-04-29T04:56:35;100909.53;;;10.66;100.00
55010;BME280;40903;51.638;7.528;2023-04-29T04:59:01;100924.22;;;10.70;100.00
55010;BME280;40903;51.638;7.528;2023-04-29T05:01:27;100916.03;;;10.70;100.00
55010;BME280;40903;51.638;7.528;2023-04-29T05:03:53;100920.38;;;10.76;100.00
55010;BME280;40903;51.638;7.528;2023-04-29T05:06:18;100919.59;;;10.70;100.00
55010;BME280;40903;51.638;7.528;2023-04-29T05:08:43;100927.78;;;10.70;100.00
55010;BME280;40903;51.638;7.528;2023-04-29T05:11:15;100931.34;;;10.66;100.00
55010;BME280;40903;51.638;7.528;2023-04-29T05:13:41;100938.16;;;10.68;100.00
55010;BME280;40903;51.638;7.528;2023-04-29T05:16:06;100939.25;;;10.67;100.00
55010;BME280;40903;51.638;7.528;2023-04-29T05:18:32;100939.81;;;10.64;100.00
55010;BME280;40903;51.638;7.528;2023-04-29T05:20:57;100946.63;;;10.67;100.00
55010;BME280;40903;51.638;7.528;2023-04-29T05:23:24;100944.47;;;10.64;100.00
55010;BME280;40903;51.638;7.528;2023-04-29T05:25:49;100942.78;;;10.68;100.00
55010;BME280;40903;51.638;7.528;2023-04-29T05:28:14;100943.06;;;10.66;100.00
55010;BME280;40903;51.638;7.528;2023-04-29T05:30:39;100945.19;;;10.74;100.00
55010;BME280;40903;51.638;7.528;2023-04-29T05:33:05;100946.56;;;10.72;100.00
55010;BME280;40903;51.638;7.528;2023-04-29T05:35:30;100943.84;;;10.72;100.00
55010;BME280;40903;51.638;7.528;2023-04-29T05:37:56;100960.19;;;10.77;100.00
55010;BME280;40903;51.638;7.528;2023-04-29T05:40:21;100962.34;;;10.80;100.00
55010;BME280;40903;51.638;7.528;2023-04-29T05:42:47;100959.03;;;10.83;100.00
55010;BME280;40903;51.638;7.528;2023-04-29T05:45:13;100965.53;;;10.87;100.00
55010;BME280;40903;51.638;7.528;2023-04-29T05:47:38;100971.56;;;10.84;100.00
55010;BME280;40903;51.638;7.528;2023-04-29T05:50:03;100965.00;;;10.85;100.00
55010;BME280;40903;51.638;7.528;2023-04-29T05:52:29;100972.66;;;10.83;100.00
55010;BME280;40903;51.638;7.528;2023-04-29T05:54:54;100977.84;;;10.84;100.00
55010;BME280;40903;51.638;7.528;2023-04-29T05:57:19;100986.84;;;10.85;100.00
55010;BME280;40903;51.638;7.528;2023-04-29T05:59:45;100983.00;;;10.86;100.00
55010;BME280;40903;51.638;7.528;2023-04-29T06:02:10;100995.03;;;10.85;100.00
55010;BME280;40903;51.638;7.528;2023-04-29T06:04:36;100991.25;;;10.81;100.00
55010;BME280;40903;51.638;7.528;2023-04-29T06:07:01;101000.53;;;10.80;100.00
55010;BME280;40903;51.638;7.528;2023-04-29T06:09:28;100995.03;;;10.85;100.00
55010;BME280;40903;51.638;7.528;2023-04-29T06:11:53;101009.22;;;10.82;100.00
55010;BME280;40903;51.638;7.528;2023-04-29T06:14:19;101010.34;;;10.81;100.00
55010;BME280;40903;51.638;7.528;2023-04-29T06:16:44;101021.25;;;10.81;100.00
55010;BME280;40903;51.638;7.528;2023-04-29T06:19:09;101020.19;;;10.77;100.00
55010;BME280;40903;51.638;7.528;2023-04-29T06:21:35;101021.00;;;10.77;100.00
55010;BME280;40903;51.638;7.528;2023-04-29T06:24:00;101029.47;;;10.76;100.00
55010;BME280;40903;51.638;7.528;2023-04-29T06:26:25;101035.47;;;10.73;100.00
55010;BME280;40903;51.638;7.528;2023-04-29T06:28:50;101035.47;;;10.73;100.00
55010;BME280;40903;51.638;7.528;2023-04-29T06:31:16;101033.31;;;10.70;100.00
55010;BME280;40903;51.638;7.528;2023-04-29T06:33:41;101042.91;;;10.67;100.00
55010;BME280;40903;51.638;7.528;2023-04-29T06:36:06;101042.06;;;10.67;100.00
55010;BME280;40903;51.638;7.528;2023-04-29T06:38:32;101042.66;;;10.64;100.00
55010;BME280;40903;51.638;7.528;2023-04-29T06:40:57;101049.47;;;10.61;100.00
55010;BME280;40903;51.638;7.528;2023-04-29T06:43:25;101051.66;;;10.59;100.00
55010;BME280;40903;51.638;7.528;2023-04-29T06:45:50;101051.41;;;10.61;100.00
55010;BME280;40903;51.638;7.528;2023-04-29T06:48:16;101058.72;;;10.65;100.00
55010;BME280;40903;51.638;7.528;2023-04-29T06:50:54;101057.38;;;10.63;100.00
55010;BME280;40903;51.638;7.528;2023-04-29T06:53:20;101068.28;;;10.63;100.00
55010;BME280;40903;51.638;7.528;2023-04-29T06:55:46;101072.91;;;10.62;100.00
55010;BME280;40903;51.638;7.528;2023-04-29T06:58:11;101071.59;;;10.60;100.00
55010;BME280;40903;51.638;7.528;2023-04-29T07:00:37;101075.13;;;10.60;100.00
55010;BME280;40903;51.638;7.528;2023-04-29T07:03:03;101084.38;;;10.59;100.00
55010;BME280;40903;51.638;7.528;2023-04-29T07:05:28;101085.22;;;10.60;100.00
55010;BME280;40903;51.638;7.528;2023-04-29T07:07:53;101084.66;;;10.63;100.00
55010;BME280;40903;51.638;7.528;2023-04-29T07:10:19;101095.56;;;10.63;100.00
55010;BME280;40903;51.638;7.528;2023-04-29T07:12:44;101098.84;;;10.60;100.00
55010;BME280;40903;51.638;7.528;2023-04-29T07:15:09;101097.75;;;10.61;100.00
55010;BME280;40903;51.638;7.528;2023-04-29T07:17:34;101098.56;;;10.61;100.00
55010;BME280;40903;51.638;7.528;2023-04-29T07:20:00;101100.47;;;10.61;100.00
55010;BME280;40903;51.638;7.528;2023-04-29T07:22:25;101106.47;;;10.63;100.00
55010;BME280;40903;51.638;7.528;2023-04-29T07:24:53;101115.97;;;10.65;100.00
55010;BME280;40903;51.638;7.528;2023-04-29T07:27:19;101116.81;;;10.66;100.00
55010;BME280;40903;51.638;7.528;2023-04-29T07:29:45;101120.09;;;10.63;100.00
55010;BME280;40903;51.638;7.528;2023-04-29T07:32:10;101119.00;;;10.59;100.00
55010;BME280;40903;51.638;7.528;2023-04-29T07:34:36;101127.75;;;10.61;100.00
55010;BME280;40903;51.638;7.528;2023-04-29T07:37:01;101125.03;;;10.61;100.00
55010;BME280;40903;51.638;7.528;2023-04-29T07:39:26;101133.97;;;10.66;100.00
55010;BME280;40903;51.638;7.528;2023-04-29T07:41:54;101138.06;;;10.69;100.00
55010;BME280;40903;51.638;7.528;2023-04-29T07:44:19;101138.31;;;10.72;100.00
55010;BME280;40903;51.638;7.528;2023-04-29T07:46:44;101142.69;;;10.73;100.00
55010;BME280;40903;51.638;7.528;2023-04-29T07:49:10;101146.78;;;10.76;100.00
55010;BME280;40903;51.638;7.528;2023-04-29T07:51:36;101144.56;;;10.78;100.00
55010;BME280;40903;51.638;7.528;2023-04-29T07:54:01;101151.91;;;10.82;100.00
55010;BME280;40903;51.638;7.528;2023-04-29T07:56:27;101158.69;;;10.85;100.00
55010;BME280;40903;51.638;7.528;2023-04-29T07:58:52;101157.34;;;10.87;100.00
55010;BME280;40903;51.638;7.528;2023-04-29T08:01:17;101166.88;;;10.90;100.00
55010;BME280;40903;51.638;7.528;2023-04-29T08:03:42;101168.78;;;10.89;100.00
55010;BME280;40903;51.638;7.528;2023-04-29T08:06:08;101171.25;;;10.91;100.00
55010;BME280;40903;51.638;7.528;2023-04-29T08:08:33;101180.22;;;10.91;100.00
55010;BME280;40903;51.638;7.528;2023-04-29T08:10:58;101181.84;;;10.92;100.00
55010;BME280;40903;51.638;7.528;2023-04-29T08:13:24;101191.41;;;10.95;100.00
55010;BME280;40903;51.638;7.528;2023-04-29T08:15:49;101186.75;;;10.95;100.00
55010;BME280;40903;51.638;7.528;2023-04-29T08:18:15;101191.94;;;10.97;100.00
55010;BME280;40903;51.638;7.528;2023-04-29T08:20:40;101187.53;;;11.01;100.00
55010;BME280;40903;51.638;7.528;2023-04-29T08:23:06;101190.00;;;11.02;100.00
55010;BME280;40903;51.638;7.528;2023-04-29T08:25:31;101198.97;;;11.03;100.00
55010;BME280;40903;51.638;7.528;2023-04-29T08:27:56;101201.44;;;11.04;100.00
55010;BME280;40903;51.638;7.528;2023-04-29T08:30:22;101202.22;;;11.10;100.00
55010;BME280;40903;51.638;7.528;2023-04-29T08:32:47;101201.94;;;11.16;100.00
55010;BME280;40903;51.638;7.528;2023-04-29T08:35:12;101203.50;;;11.22;100.00
55010;BME280;40903;51.638;7.528;2023-04-29T08:37:38;101202.09;;;11.30;100.00
55010;BME280;40903;51.638;7.528;2023-04-29T08:40:03;101202.09;;;11.35;100.00
55010;BME280;40903;51.638;7.528;2023-04-29T08:42:33;101206.41;;;11.41;100.00
55010;BME280;40903;51.638;7.528;2023-04-29T08:44:59;101216.75;;;11.44;100.00
55010;BME280;40903;51.638;7.528;2023-04-29T08:47:24;101211.25;;;11.49;100.00
55010;BME280;40903;51.638;7.528;2023-04-29T08:49:51;101218.59;;;11.53;100.00
55010;BME280;40903;51.638;7.528;2023-04-29T08:52:17;101221.84;;;11.55;100.00
55010;BME280;40903;51.638;7.528;2023-04-29T08:54:42;101218.81;;;11.62;100.00
55010;BME280;40903;51.638;7.528;2023-04-29T08:57:08;101230.84;;;11.66;100.00
55010;BME280;40903;51.638;7.528;2023-04-29T08:59:34;101233.78;;;11.74;100.00
55010;BME280;40903;51.638;7.528;2023-04-29T09:02:00;101226.59;;;11.83;100.00
55010;BME280;40903;51.638;7.528;2023-04-29T09:06:55;101238.97;;;12.04;100.00
55010;BME280;40903;51.638;7.528;2023-04-29T09:09:21;101232.31;;;12.15;100.00
55010;BME280;40903;51.638;7.528;2023-04-29T09:11:46;101235.78;;;12.25;100.00
55010;BME280;40903;51.638;7.528;2023-04-29T09:14:11;101237.63;;;12.30;100.00
55010;BME280;40903;51.638;7.528;2023-04-29T09:16:37;101235.91;;;12.39;100.00
55010;BME280;40903;51.638;7.528;2023-04-29T09:19:02;101240.16;;;12.50;100.00
55010;BME280;40903;51.638;7.528;2023-04-29T09:21:28;101242.50;;;12.61;100.00
55010;BME280;40903;51.638;7.528;2023-04-29T09:23:56;101246.75;;;12.72;100.00
55010;BME280;40903;51.638;7.528;2023-04-29T09:26:22;101238.03;;;12.89;100.00
55010;BME280;40903;51.638;7.528;2023-04-29T09:29:10;101246.41;;;13.02;100.00
55010;BME280;40903;51.638;7.528;2023-04-29T09:31:34;101240.94;;;13.21;100.00
55010;BME280;40903;51.638;7.528;2023-04-29T09:34:00;101240.72;;;13.36;100.00
55010;BME280;40903;51.638;7.528;2023-04-29T09:39:08;101250.94;;;13.67;100.00
55010;BME280;40903;51.638;7.528;2023-04-29T09:44:08;101263.34;;;13.96;100.00
55010;BME280;40903;51.638;7.528;2023-04-29T09:46:34;101260.03;;;13.99;100.00
55010;BME280;40903;51.638;7.528;2023-04-29T09:49:01;101268.88;;;14.10;100.00
55010;BME280;40903;51.638;7.528;2023-04-29T09:51:26;101273.13;;;14.21;100.00
55010;BME280;40903;51.638;7.528;2023-04-29T09:53:51;101272.06;;;14.17;97.55
55010;BME280;40903;51.638;7.528;2023-04-29T09:56:17;101276.88;;;14.25;98.35
55010;BME280;40903;51.638;7.528;2023-04-29T09:58:42;101278.22;;;14.27;98.70
55010;BME280;40903;51.638;7.528;2023-04-29T10:01:07;101279.03;;;14.28;98.62
55010;BME280;40903;51.638;7.528;2023-04-29T10:03:36;101280.25;;;14.22;96.98
55010;BME280;40903;51.638;7.528;2023-04-29T10:06:02;101280.66;;;14.29;96.83
55010;BME280;40903;51.638;7.528;2023-04-29T10:08:28;101274.66;;;14.27;98.36
55010;BME280;40903;51.638;7.528;2023-04-29T10:10:54;101282.06;;;14.26;98.60
55010;BME280;40903;51.638;7.528;2023-04-29T10:13:24;101280.81;;;14.19;96.67
55010;BME280;40903;51.638;7.528;2023-04-29T10:16:00;101285.41;;;14.23;96.56
55010;BME280;40903;51.638;7.528;2023-04-29T10:18:35;101291.41;;;14.25;94.85
55010;BME280;40903;51.638;7.528;2023-04-29T10:21:02;101292.75;;;14.28;96.90
55010;BME280;40903;51.638;7.528;2023-04-29T10:23:27;101295.72;;;14.31;96.01
55010;BME280;40903;51.638;7.528;2023-04-29T10:25:54;101293.47;;;14.33;93.69
55010;BME280;40903;51.638;7.528;2023-04-29T10:28:19;101299.38;;;14.40;95.88
55010;BME280;40903;51.638;7.528;2023-04-29T10:30:49;101300.16;;;14.59;98.77
55010;BME280;40903;51.638;7.528;2023-04-29T10:33:15;101299.03;;;14.74;96.40
55010;BME280;40903;51.638;7.528;2023-04-29T10:35:42;101287.06;;;14.97;95.30
55010;BME280;40903;51.638;7.528;2023-04-29T10:38:14;101293.13;;;15.21;94.60
55010;BME280;40903;51.638;7.528;2023-04-29T10:40:44;101286.09;;;15.28;89.92
55010;BME280;40903;51.638;7.528;2023-04-29T10:43:13;101295.28;;;15.37;87.87
55010;BME280;40903;51.638;7.528;2023-04-29T10:45:39;101296.59;;;15.40;83.58
55010;BME280;40903;51.638;7.528;2023-04-29T10:48:07;101303.50;;;15.51;85.67
55010;BME280;40903;51.638;7.528;2023-04-29T10:53:10;101303.75;;;15.76;86.63
55010;BME280;40903;51.638;7.528;2023-04-29T10:55:36;101304.63;;;15.85;84.05
55010;BME280;40903;51.638;7.528;2023-04-29T10:58:03;101303.38;;;15.91;83.21
55010;BME280;40903;51.638;7.528;2023-04-29T11:00:28;101299.91;;;15.99;85.19
55010;BME280;40903;51.638;7.528;2023-04-29T11:02:57;101305.16;;;16.09;85.74
55010;BME280;40903;51.638;7.528;2023-04-29T11:05:29;101298.91;;;16.17;84.58
55010;BME280;40903;51.638;7.528;2023-04-29T11:08:18;101305.28;;;16.26;79.96
55010;BME280;40903;51.638;7.528;2023-04-29T11:10:53;101306.03;;;15.96;73.75
55010;BME280;40903;51.638;7.528;2023-04-29T11:13:25;101307.03;;;16.22;79.09
55010;BME280;40903;51.638;7.528;2023-04-29T11:16:12;101312.28;;;16.32;80.90
55010;BME280;40903;51.638;7.528;2023-04-29T11:19:02;101313.44;;;16.53;80.26
55010;BME280;40903;51.638;7.528;2023-04-29T11:21:21;101312.69;;;16.69;79.31
55010;BME280;40903;51.638;7.528;2023-04-29T11:23:49;101315.25;;;16.66;75.11
55010;BME280;40903;51.638;7.528;2023-04-29T11:26:19;101307.56;;;16.76;75.81
55010;BME280;40903;51.638;7.528;2023-04-29T11:28:45;101313.16;;;16.63;73.93
55010;BME280;40903;51.638;7.528;2023-04-29T11:31:11;101320.66;;;16.49;75.45
55010;BME280;40903;51.638;7.528;2023-04-29T11:33:36;101316.94;;;16.45;77.77
55010;BME280;40903;51.638;7.528;2023-04-29T11:36:02;101307.00;;;16.35;76.48
55010;BME280;40903;51.638;7.528;2023-04-29T11:38:28;101321.03;;;16.34;78.15
55010;BME280;40903;51.638;7.528;2023-04-29T11:40:54;101319.53;;;16.28;75.93
55010;BME280;40903;51.638;7.528;2023-04-29T11:43:21;101318.03;;;16.22;76.29
55010;BME280;40903;51.638;7.528;2023-04-29T11:45:46;101324.00;;;16.15;77.39
55010;BME280;40903;51.638;7.528;2023-04-29T11:48:18;101323.03;;;15.98;75.83
55010;BME280;40903;51.638;7.528;2023-04-29T11:50:46;101325.59;;;15.94;77.58
55010;BME280;40903;51.638;7.528;2023-04-29T11:53:12;101331.66;;;15.83;75.11
55010;BME280;40903;51.638;7.528;2023-04-29T11:55:42;101331.44;;;15.79;77.52
55010;BME280;40903;51.638;7.528;2023-04-29T11:58:08;101333.19;;;15.76;77.61
55010;BME280;40903;51.638;7.528;2023-04-29T12:00:34;101328.41;;;15.68;78.03
55010;BME280;40903;51.638;7.528;2023-04-29T12:03:00;101332.69;;;15.60;78.55
55010;BME280;40903;51.638;7.528;2023-04-29T12:05:26;101338.19;;;15.60;78.96
55010;BME280;40903;51.638;7.528;2023-04-29T12:07:51;101332.09;;;15.63;80.74
55010;BME280;40903;51.638;7.528;2023-04-29T12:10:18;101337.78;;;15.67;81.53
55010;BME280;40903;51.638;7.528;2023-04-29T12:12:43;101332.06;;;15.77;81.12
55010;BME280;40903;51.638;7.528;2023-04-29T12:15:10;101339.56;;;15.84;79.86
55010;BME280;40903;51.638;7.528;2023-04-29T12:17:35;101330.16;;;15.99;81.72
55010;BME280;40903;51.638;7.528;2023-04-29T12:20:01;101329.94;;;16.09;78.85
55010;BME280;40903;51.638;7.528;2023-04-29T12:22:32;101334.72;;;16.25;79.98
55010;BME280;40903;51.638;7.528;2023-04-29T12:24:57;101329.03;;;16.35;78.38
55010;BME280;40903;51.638;7.528;2023-04-29T12:27:23;101335.50;;;16.39;75.69
55010;BME280;40903;51.638;7.528;2023-04-29T12:29:50;101335.50;;;16.39;71.39
55010;BME280;40903;51.638;7.528;2023-04-29T12:32:16;101333.88;;;16.38;71.40
55010;BME280;40903;51.638;7.528;2023-04-29T12:34:41;101340.03;;;16.35;74.87
55010;BME280;40903;51.638;7.528;2023-04-29T12:37:08;101336.25;;;16.31;75.73
55010;BME280;40903;51.638;7.528;2023-04-29T12:39:33;101335.22;;;16.27;74.49
55010;BME280;40903;51.638;7.528;2023-04-29T12:42:00;101339.94;;;16.27;76.43
55010;BME280;40903;51.638;7.528;2023-04-29T12:44:37;101339.13;;;16.26;76.31
55010;BME280;40903;51.638;7.528;2023-04-29T12:47:09;101333.09;;;16.24;76.71
55010;BME280;40903;51.638;7.528;2023-04-29T12:49:35;101341.06;;;16.26;78.88
55010;BME280;40903;51.638;7.528;2023-04-29T12:52:01;101336.25;;;16.31;79.65
55010;BME280;40903;51.638;7.528;2023-04-29T12:54:26;101340.03;;;16.35;73.66